Aberdeen, Pennsylvania
Current Conditions -  °F | °C
As of 9:19 AM on Tuesday 27 Jan 2015 (Local Time) from KMDT Reporting Station
Broken Clouds Broken Clouds  
Wind Chill: 13°   Ceiling: 2500
Heat Index: 26°   Visibility: 10mi
Dew Point: 19°   Wind: 17mph
Humidity: 75%   Direction: 330°NNW
Pressure: 29.8"   Gusts: 25mph
Location:  40.1674°N, 76.6045°W
Report Text: KMDT 271419Z 33015G22KT 10SM BKN025 BKN070 M03/M07 A2980 RMK AO2 T10331072
Loading
Personal Weather Stations






























Interactive Weather Map New forecast layout! Learn more

10-Day Weather Forecast

Advertisements
Track Severe Weather on mobile